createdAt,value
2019-01-13T00:00:44.221Z,86.52
2019-01-13T00:01:43.988Z,86.52
2019-01-13T00:02:44.255Z,86.71
2019-01-13T00:03:44.019Z,86.67
2019-01-13T00:04:44.291Z,86.9
2019-01-13T00:05:44.056Z,86.9
2019-01-13T00:06:44.340Z,86.9
2019-01-13T00:07:44.094Z,86.71
2019-01-13T00:08:44.106Z,86.71
2019-01-13T00:09:44.142Z,86.9
2019-01-13T00:10:44.196Z,86.71
2019-01-13T00:11:44.424Z,86.99
2019-01-13T00:12:44.433Z,86.57
2019-01-13T00:13:44.191Z,86.8
2019-01-13T00:14:44.466Z,86.99
2019-01-13T00:15:44.232Z,86.99
2019-01-13T00:16:44.251Z,86.9
2019-01-13T00:17:44.269Z,86.9
2019-01-13T00:18:44.537Z,86.8
2019-01-13T00:19:44.304Z,86.8
2019-01-13T00:20:44.573Z,86.76
2019-01-13T00:21:44.333Z,86.8
2019-01-13T00:22:44.352Z,86.52
2019-01-13T00:23:44.372Z,86.99
2019-01-13T00:24:44.390Z,86.99
2019-01-13T00:25:44.665Z,86.8
2019-01-13T00:26:44.693Z,86.71
2019-01-13T00:27:44.449Z,86.52
2019-01-13T00:28:44.457Z,86.61
2019-01-13T00:29:44.737Z,86.71
2019-01-13T00:30:44.492Z,86.71
2019-01-13T00:31:44.769Z,86.8
2019-01-13T00:32:44.797Z,86.71
2019-01-13T00:33:44.818Z,86.9
2019-01-13T00:34:44.818Z,86.8
2019-01-13T00:35:44.582Z,86.9
2019-01-13T00:36:44.598Z,86.99
2019-01-13T00:37:44.876Z,86.52
2019-01-13T00:38:44.658Z,86.71
2019-01-13T00:39:44.914Z,86.8
2019-01-13T00:40:44.688Z,86.99
2019-01-13T00:41:44.944Z,86.8
2019-01-13T00:42:44.715Z,86.99
2019-01-13T00:43:44.737Z,86.8
2019-01-13T00:44:46.314Z,86.8
2019-01-13T00:45:45.021Z,86.9
2019-01-13T00:46:45.032Z,86.8
2019-01-13T00:47:45.060Z,86.99
2019-01-13T00:48:45.074Z,86.9
2019-01-13T00:49:44.838Z,86.8
2019-01-13T00:50:45.109Z,86.9
2019-01-13T00:51:44.877Z,86.99
2019-01-13T00:52:45.145Z,86.9
2019-01-13T00:53:45.487Z,86.71
2019-01-13T00:54:45.179Z,86.9
2019-01-13T00:55:44.944Z,86.8
2019-01-13T00:56:45.212Z,86.9
2019-01-13T00:57:44.972Z,86.8
2019-01-13T00:58:45.250Z,86.71
2019-01-13T00:59:45.278Z,86.8
2019-01-13T01:00:45.031Z,86.8
2019-01-13T01:01:45.333Z,86.8
2019-01-13T01:02:45.326Z,86.71
2019-01-13T01:03:45.335Z,86.61
2019-01-13T01:04:45.096Z,86.52
2019-01-13T01:05:45.120Z,86.8
2019-01-13T01:06:45.401Z,86.8
2019-01-13T01:07:47.041Z,86.9
2019-01-13T01:08:45.166Z,86.9
2019-01-13T01:09:45.447Z,86.9
2019-01-13T01:10:45.473Z,86.71
2019-01-13T01:11:45.229Z,86.8
2019-01-13T01:12:45.510Z,86.71
2019-01-13T01:13:45.517Z,86.52
2019-01-13T01:14:45.275Z,86.52
2019-01-13T01:15:45.293Z,86.8
2019-01-13T01:16:45.316Z,86.61
2019-01-13T01:17:45.333Z,86.61
2019-01-13T01:18:45.605Z,86.9
2019-01-13T01:19:45.630Z,86.52
2019-01-13T01:20:45.636Z,86.24
2019-01-13T01:21:45.398Z,86.9
2019-01-13T01:22:45.418Z,86.9
2019-01-13T01:23:45.705Z,86.71
2019-01-13T01:24:45.715Z,86.8
2019-01-13T01:25:45.735Z,86.8
2019-01-13T01:26:45.494Z,86.8
2019-01-13T01:27:45.785Z,86.71
2019-01-13T01:28:46.617Z,86.43
2019-01-13T01:29:45.796Z,86.8
2019-01-13T01:30:45.563Z,86.99
2019-01-13T01:31:45.835Z,86.9
2019-01-13T01:32:45.595Z,86.86
2019-01-13T01:33:45.615Z,86.9
2019-01-13T01:34:45.631Z,86.99
2019-01-13T01:35:45.646Z,86.99
2019-01-13T01:36:45.933Z,86.43
2019-01-13T01:37:45.682Z,86.61
2019-01-13T01:38:45.714Z,86.9
2019-01-13T01:39:45.720Z,86.8
2019-01-13T01:40:45.740Z,86.9
2019-01-13T01:41:46.015Z,86.61
2019-01-13T01:42:45.773Z,86.8
2019-01-13T01:43:46.051Z,86.52
2019-01-13T01:44:45.806Z,86.9
2019-01-13T01:45:45.833Z,86.9
2019-01-13T01:46:46.109Z,86.43
2019-01-13T01:47:45.865Z,86.52
2019-01-13T01:48:46.137Z,86.9
2019-01-13T01:49:45.901Z,86.9
2019-01-13T01:50:46.178Z,86.99
2019-01-13T01:51:46.203Z,86.71
2019-01-13T01:52:45.953Z,87.09
2019-01-13T01:53:45.978Z,86.95
2019-01-13T01:54:46.252Z,87.09
2019-01-13T01:55:46.006Z,86.99
2019-01-13T01:56:46.279Z,86.99
2019-01-13T01:57:46.047Z,86.71
2019-01-13T01:58:46.317Z,86.71
2019-01-13T01:59:46.077Z,86.9
2019-01-13T02:00:46.108Z,86.71
2019-01-13T02:01:46.374Z,86.71
2019-01-13T02:02:46.399Z,86.99
2019-01-13T02:03:46.230Z,86.99
2019-01-13T02:04:46.232Z,86.8
2019-01-13T02:05:46.181Z,86.71
2019-01-13T02:06:46.470Z,86.9
2019-01-13T02:07:46.516Z,86.99
2019-01-13T02:08:46.236Z,86.9
2019-01-13T02:09:46.512Z,86.99
2019-01-13T02:10:46.278Z,86.99
2019-01-13T02:11:46.295Z,86.8
2019-01-13T02:12:46.565Z,86.8
2019-01-13T02:13:46.331Z,86.71
2019-01-13T02:14:46.609Z,86.52
2019-01-13T02:15:46.361Z,86.9
2019-01-13T02:16:46.393Z,86.8
2019-01-13T02:17:46.655Z,86.99
2019-01-13T02:18:46.674Z,86.8
2019-01-13T02:19:46.440Z,86.8
2019-01-13T02:20:46.714Z,86.9
2019-01-13T02:21:46.477Z,86.9
2019-01-13T02:22:46.488Z,86.8
2019-01-13T02:23:46.765Z,86.71
2019-01-13T02:24:46.794Z,86.8
2019-01-13T02:25:46.542Z,86.8
2019-01-13T02:26:46.814Z,86.52
2019-01-13T02:27:46.837Z,86.71
2019-01-13T02:28:46.600Z,86.52
2019-01-13T02:29:46.620Z,86.71
2019-01-13T02:30:51.759Z,86.71
2019-01-13T02:31:46.914Z,86.71
2019-01-13T02:32:46.667Z,86.99
2019-01-13T02:33:46.945Z,86.8
2019-01-13T02:34:46.703Z,86.8
2019-01-13T02:35:46.725Z,86.61
2019-01-13T02:36:46.746Z,86.61
2019-01-13T02:37:47.037Z,86.52
2019-01-13T02:38:46.776Z,86.8
2019-01-13T02:39:47.074Z,86.99
2019-01-13T02:40:47.071Z,86.61
2019-01-13T02:41:46.829Z,86.61
2019-01-13T02:42:47.102Z,86.61
2019-01-13T02:43:46.869Z,86.8
2019-01-13T02:44:46.888Z,86.99
2019-01-13T02:45:46.899Z,86.61
2019-01-13T02:46:47.178Z,86.71
2019-01-13T02:47:47.203Z,86.71
2019-01-13T02:48:46.974Z,86.52
2019-01-13T02:49:47.229Z,86.99
2019-01-13T02:50:47.274Z,86.8
2019-01-13T02:51:47.007Z,86.8
2019-01-13T02:52:47.029Z,86.9
2019-01-13T02:53:47.313Z,86.8
2019-01-13T02:54:47.076Z,86.8
2019-01-13T02:55:47.104Z,86.8
2019-01-13T02:56:47.359Z,86.9
2019-01-13T02:57:47.114Z,86.9
2019-01-13T02:58:47.134Z,86.9
2019-01-13T02:59:47.418Z,86.9
2019-01-13T03:00:47.426Z,86.9
2019-01-13T03:01:47.443Z,86.8
2019-01-13T03:02:47.483Z,86.99
2019-01-13T03:03:47.235Z,86.8
2019-01-13T03:04:47.502Z,86.99
2019-01-13T03:05:47.528Z,86.8
2019-01-13T03:06:47.280Z,86.8
2019-01-13T03:07:47.298Z,86.9
2019-01-13T03:08:47.576Z,86.43
2019-01-13T03:09:47.594Z,86.8
2019-01-13T03:10:47.361Z,86.8
2019-01-13T03:11:47.370Z,86.9
2019-01-13T03:12:47.647Z,86.99
2019-01-13T03:13:47.665Z,86.71
2019-01-13T03:14:47.423Z,86.71
2019-01-13T03:15:47.449Z,86.43
2019-01-13T03:16:47.821Z,86.71
2019-01-13T03:17:47.477Z,86.9
2019-01-13T03:18:47.553Z,86.9
2019-01-13T03:19:47.512Z,86.9
2019-01-13T03:20:47.795Z,87.09
2019-01-13T03:21:47.804Z,87.09
2019-01-13T03:22:47.841Z,86.9
2019-01-13T03:23:47.584Z,86.71
2019-01-13T03:24:47.866Z,87.09
2019-01-13T03:25:47.620Z,86.99
2019-01-13T03:26:47.638Z,86.9
2019-01-13T03:27:47.915Z,86.9
2019-01-13T03:28:47.934Z,87.09
2019-01-13T03:29:47.949Z,87.09
2019-01-13T03:30:47.984Z,86.9
2019-01-13T03:31:47.733Z,87.47
2019-01-13T03:32:48.034Z,87.09
2019-01-13T03:33:47.763Z,87.09
2019-01-13T03:34:47.783Z,87.09
2019-01-13T03:35:48.059Z,86.8
2019-01-13T03:36:47.817Z,86.9
2019-01-13T03:37:47.834Z,86.9
2019-01-13T03:38:47.852Z,86.9
2019-01-13T03:39:48.130Z,87.19
2019-01-13T03:40:47.888Z,87.09
2019-01-13T03:41:48.198Z,87.19
2019-01-13T03:42:48.185Z,86.8
2019-01-13T03:43:48.201Z,86.8
2019-01-13T03:44:47.961Z,87.09
2019-01-13T03:45:47.976Z,86.9
2019-01-13T03:46:48.265Z,86.9
2019-01-13T03:47:48.013Z,87.28
2019-01-13T03:48:48.036Z,86.99
2019-01-13T03:49:48.052Z,87.09
2019-01-13T03:50:48.322Z,86.9
2019-01-13T03:51:48.086Z,87.09
2019-01-13T03:52:55.336Z,86.8
2019-01-13T03:53:48.389Z,87.09
2019-01-13T03:54:48.143Z,86.9
2019-01-13T03:55:48.153Z,87.38
2019-01-13T03:56:48.170Z,86.9
2019-01-13T03:57:48.449Z,87.09
2019-01-13T03:58:48.307Z,87.38
2019-01-13T03:59:48.486Z,87.09
2019-01-13T04:00:48.241Z,87.19
2019-01-13T04:01:48.532Z,86.9
2019-01-13T04:02:48.536Z,87.47
2019-01-13T04:03:48.297Z,87.47
2019-01-13T04:04:48.318Z,87.09
2019-01-13T04:05:48.328Z,87.28
2019-01-13T04:06:48.605Z,87.47
2019-01-13T04:07:48.623Z,87.28
2019-01-13T04:08:48.652Z,86.9
2019-01-13T04:09:48.400Z,87.28
2019-01-13T04:10:48.422Z,87.19
2019-01-13T04:11:48.455Z,87.38
2019-01-13T04:12:48.469Z,87.38
2019-01-13T04:13:48.736Z,87.28
2019-01-13T04:14:48.503Z,87.28
2019-01-13T04:15:48.507Z,87.28
2019-01-13T04:16:48.525Z,87.09
2019-01-13T04:17:48.806Z,87.19
2019-01-13T04:18:48.591Z,87.47
2019-01-13T04:19:48.843Z,87.28
2019-01-13T04:20:48.597Z,87.28
2019-01-13T04:21:48.888Z,87.28
2019-01-13T04:22:48.644Z,86.99
2019-01-13T04:23:48.911Z,87.28
2019-01-13T04:24:48.676Z,87.28
2019-01-13T04:25:48.958Z,87.47
2019-01-13T04:26:48.711Z,86.8
2019-01-13T04:27:48.985Z,87.28
2019-01-13T04:28:48.752Z,87.28
2019-01-13T04:29:49.018Z,87.28
2019-01-13T04:30:48.780Z,87.28
2019-01-13T04:31:49.060Z,87.38
2019-01-13T04:32:48.811Z,87.47
2019-01-13T04:33:49.103Z,87.47
2019-01-13T04:34:48.847Z,86.9
2019-01-13T04:35:49.124Z,87.47
2019-01-13T04:36:48.883Z,87.57
2019-01-13T04:37:49.155Z,87.28
2019-01-13T04:38:48.915Z,87.47
2019-01-13T04:39:49.194Z,87.38
2019-01-13T04:40:48.955Z,87.09
2019-01-13T04:41:49.229Z,87.09
2019-01-13T04:42:48.985Z,87.19
2019-01-13T04:43:49.264Z,87.09
2019-01-13T04:44:49.024Z,87.19
2019-01-13T04:45:49.048Z,86.9
2019-01-13T04:46:49.328Z,86.99
2019-01-13T04:47:49.077Z,87.19
2019-01-13T04:48:49.104Z,87.09
2019-01-13T04:49:49.125Z,86.9
2019-01-13T04:50:49.135Z,87.09
2019-01-13T04:51:49.150Z,87.09
2019-01-13T04:52:49.436Z,86.99
2019-01-13T04:53:49.184Z,86.99
2019-01-13T04:54:49.208Z,86.8
2019-01-13T04:55:49.219Z,86.99
2019-01-13T04:56:49.500Z,86.99
2019-01-13T04:57:49.523Z,87.19
2019-01-13T04:58:49.288Z,86.9
2019-01-13T04:59:49.555Z,86.99
2019-01-13T05:00:49.310Z,87.38
2019-01-13T05:01:49.586Z,86.8
2019-01-13T05:02:49.346Z,86.99
2019-01-13T05:03:49.617Z,87.09
2019-01-13T05:04:49.389Z,87.09
2019-01-13T05:05:49.401Z,87.19
2019-01-13T05:06:49.687Z,87.19
2019-01-13T05:07:49.434Z,87.28
2019-01-13T05:08:49.717Z,87.19
2019-01-13T05:09:49.730Z,87.09
2019-01-13T05:10:49.486Z,87.38
2019-01-13T05:11:49.513Z,87.09
2019-01-13T05:12:49.524Z,87.09
2019-01-13T05:13:49.548Z,87.38
2019-01-13T05:14:49.557Z,87.19
2019-01-13T05:15:49.574Z,87.28
2019-01-13T05:16:49.597Z,87.09
2019-01-13T05:17:49.874Z,87.28
2019-01-13T05:18:49.627Z,87.09
2019-01-13T05:19:49.657Z,87.28
2019-01-13T05:20:49.667Z,87.09
2019-01-13T05:21:49.685Z,87.09
2019-01-13T05:22:49.972Z,86.9
2019-01-13T05:23:49.975Z,87.09
2019-01-13T05:24:50.009Z,86.9
2019-01-13T05:25:50.017Z,86.9
2019-01-13T05:26:50.054Z,87.09
2019-01-13T05:27:49.793Z,86.8
2019-01-13T05:28:49.810Z,86.9
2019-01-13T05:29:50.084Z,87.19
2019-01-13T05:30:49.849Z,86.9
2019-01-13T05:31:50.121Z,86.8
2019-01-13T05:32:49.886Z,87.09
2019-01-13T05:33:50.154Z,86.9
2019-01-13T05:34:49.970Z,86.9
2019-01-13T05:35:50.192Z,87.28
2019-01-13T05:36:49.953Z,86.9
2019-01-13T05:37:50.229Z,86.71
2019-01-13T05:38:49.981Z,86.9
2019-01-13T05:39:50.263Z,86.9
2019-01-13T05:40:50.019Z,86.9
2019-01-13T05:41:50.307Z,87.09
2019-01-13T05:42:50.064Z,86.9
2019-01-13T05:43:50.074Z,87.09
2019-01-13T05:44:50.090Z,87.09
2019-01-13T05:45:50.367Z,86.9
2019-01-13T05:46:50.144Z,86.8
2019-01-13T05:47:50.402Z,86.99
2019-01-13T05:48:50.161Z,86.9
2019-01-13T05:49:50.438Z,87.19
2019-01-13T05:50:50.194Z,87.09
2019-01-13T05:51:50.474Z,86.8
2019-01-13T05:52:50.231Z,87.47
2019-01-13T05:53:50.508Z,86.99
2019-01-13T05:54:50.268Z,87.09
2019-01-13T05:55:50.541Z,86.99
2019-01-13T05:56:50.314Z,87.28
2019-01-13T05:57:50.583Z,87.09
2019-01-13T05:58:50.338Z,87.09
2019-01-13T05:59:50.610Z,87.47
2019-01-13T06:00:50.373Z,87.38
2019-01-13T06:01:51.880Z,86.9
2019-01-13T06:02:50.411Z,86.9
2019-01-13T06:03:50.687Z,87.38
2019-01-13T06:04:50.442Z,87.57
2019-01-13T06:05:50.725Z,86.99
2019-01-13T06:06:50.484Z,86.9
2019-01-13T06:07:50.755Z,86.9
2019-01-13T06:08:50.512Z,86.9
2019-01-13T06:09:50.791Z,87.28
2019-01-13T06:10:50.824Z,86.9
2019-01-13T06:11:50.836Z,86.9
2019-01-13T06:12:50.601Z,86.8
2019-01-13T06:13:50.605Z,86.8
2019-01-13T06:14:50.625Z,87.19
2019-01-13T06:15:50.905Z,86.99
2019-01-13T06:16:50.657Z,87.09
2019-01-13T06:17:50.942Z,86.99
2019-01-13T06:18:50.695Z,87.09
2019-01-13T06:19:50.718Z,87.09
2019-01-13T06:20:50.728Z,86.99
2019-01-13T06:21:51.006Z,87.09
2019-01-13T06:22:50.769Z,87.19
2019-01-13T06:23:50.783Z,87.28
2019-01-13T06:24:50.808Z,87.38
2019-01-13T06:25:50.817Z,87.28
2019-01-13T06:26:50.847Z,87.47
2019-01-13T06:27:51.127Z,87.47
2019-01-13T06:28:50.871Z,87.28
2019-01-13T06:29:50.893Z,87.28
2019-01-13T06:30:51.162Z,87.47
2019-01-13T06:31:56.185Z,87.47
2019-01-13T06:32:50.946Z,87.28
2019-01-13T06:33:50.962Z,87.47
2019-01-13T06:34:51.235Z,87.28
2019-01-13T06:35:51.262Z,87.38
2019-01-13T06:36:51.015Z,87.09
2019-01-13T06:37:51.287Z,87.19
2019-01-13T06:38:51.049Z,87.19
2019-01-13T06:39:51.326Z,87.28
2019-01-13T06:40:51.132Z,87.09
2019-01-13T06:41:51.360Z,87.28
2019-01-13T06:42:51.126Z,87.28
2019-01-13T06:43:51.144Z,87.09
2019-01-13T06:44:51.414Z,87.38
2019-01-13T06:45:51.189Z,87.28
2019-01-13T06:46:51.199Z,87.28
2019-01-13T06:47:51.468Z,87.28
2019-01-13T06:48:51.224Z,87.09
2019-01-13T06:49:51.253Z,86.71
2019-01-13T06:50:51.260Z,86.99
2019-01-13T06:51:51.282Z,87.19
2019-01-13T06:52:51.564Z,86.8
2019-01-13T06:53:51.316Z,86.8
2019-01-13T06:54:51.590Z,87.09
2019-01-13T06:55:51.609Z,86.9
2019-01-13T06:56:51.376Z,86.8
2019-01-13T06:57:51.394Z,87.38
2019-01-13T06:58:51.403Z,87.47
2019-01-13T06:59:51.429Z,87.28
2019-01-13T07:00:51.440Z,86.9
2019-01-13T07:01:51.717Z,87.28
2019-01-13T07:02:51.475Z,87.76
2019-01-13T07:03:51.494Z,87.57
2019-01-13T07:04:51.782Z,87.57
2019-01-13T07:05:51.530Z,87.76
2019-01-13T07:06:51.806Z,86.9
2019-01-13T07:07:51.839Z,87.28
2019-01-13T07:08:51.582Z,87.38
2019-01-13T07:09:51.863Z,87.28
2019-01-13T07:10:51.625Z,87.47
2019-01-13T07:11:51.637Z,87.57
2019-01-13T07:12:51.924Z,86.9
2019-01-13T07:13:51.672Z,86.9
2019-01-13T07:14:51.688Z,87.09
2019-01-13T07:15:51.984Z,86.99
2019-01-13T07:16:51.990Z,86.9
2019-01-13T07:17:51.744Z,87.57
2019-01-13T07:18:51.769Z,86.9
2019-01-13T07:19:51.783Z,87.66
2019-01-13T07:20:51.798Z,87.76
2019-01-13T07:21:52.088Z,87.28
2019-01-13T07:22:51.837Z,87.38
2019-01-13T07:23:52.112Z,87.28
2019-01-13T07:24:51.880Z,86.9
2019-01-13T07:25:52.145Z,87.57
2019-01-13T07:26:52.176Z,87.38
2019-01-13T07:27:51.930Z,87.28
2019-01-13T07:28:51.947Z,87.38
2019-01-13T07:29:51.970Z,86.99
2019-01-13T07:30:51.984Z,86.9
2019-01-13T07:31:51.997Z,87.28
2019-01-13T07:32:52.013Z,87.38
2019-01-13T07:33:52.027Z,87.38
2019-01-13T07:34:52.055Z,87.47
2019-01-13T07:35:52.322Z,87.47
2019-01-13T07:36:52.351Z,87.28
2019-01-13T07:37:52.096Z,87.47
2019-01-13T07:38:52.375Z,87.47
2019-01-13T07:39:52.133Z,87.57
2019-01-13T07:40:52.153Z,87.47
2019-01-13T07:41:52.444Z,87.47
2019-01-13T07:42:52.186Z,87.19
2019-01-13T07:43:52.472Z,87.19
2019-01-13T07:44:52.223Z,87.19
2019-01-13T07:45:52.243Z,87.19
2019-01-13T07:46:52.275Z,87.19
2019-01-13T07:47:52.280Z,87.19
2019-01-13T07:48:52.306Z,87.19
2019-01-13T07:49:52.572Z,87.19
2019-01-13T07:50:52.336Z,87.19
2019-01-13T07:51:52.353Z,87.19
2019-01-13T07:52:52.627Z,87.57
2019-01-13T07:53:52.390Z,87.66
2019-01-13T07:54:53.792Z,87.19
2019-01-13T07:55:52.681Z,87.47
2019-01-13T07:56:52.443Z,87.19
2019-01-13T07:57:52.456Z,87.19
2019-01-13T07:58:52.731Z,87.47
2019-01-13T07:59:52.492Z,87.47
2019-01-13T08:00:52.779Z,87.09
2019-01-13T08:01:52.537Z,87.47
2019-01-13T08:02:52.550Z,87.09
2019-01-13T08:03:52.572Z,87.57
2019-01-13T08:04:52.847Z,87.47
2019-01-13T08:05:52.869Z,87.47
2019-01-13T08:06:52.626Z,87.09
2019-01-13T08:07:52.897Z,87.09
2019-01-13T08:08:52.657Z,87.19
2019-01-13T08:09:52.676Z,87.66
2019-01-13T08:10:52.948Z,87.66
2019-01-13T08:11:52.969Z,87.09
2019-01-13T08:12:52.724Z,87.19
2019-01-13T08:13:53.008Z,87.47
2019-01-13T08:14:52.760Z,87.19
2019-01-13T08:15:53.037Z,87.47
2019-01-13T08:16:53.058Z,87.57
2019-01-13T08:17:52.820Z,87.66
2019-01-13T08:18:53.095Z,87.38
2019-01-13T08:19:52.854Z,87.28
2019-01-13T08:20:53.139Z,87.66
2019-01-13T08:21:53.158Z,87.47
2019-01-13T08:22:52.906Z,87.23
2019-01-13T08:23:52.931Z,87.47
2019-01-13T08:24:52.947Z,87.47
2019-01-13T08:25:52.972Z,87.28
2019-01-13T08:26:53.234Z,87.57
2019-01-13T08:27:53.003Z,87.19
2019-01-13T08:28:53.019Z,87.47
2019-01-13T08:29:53.295Z,87.28
2019-01-13T08:30:53.319Z,87.28
2019-01-13T08:31:53.325Z,87.09
2019-01-13T08:32:53.350Z,87.71
2019-01-13T08:33:53.378Z,87.47
2019-01-13T08:34:53.381Z,87.23
2019-01-13T08:35:53.136Z,87.19
2019-01-13T08:36:53.155Z,87.23
2019-01-13T08:37:53.441Z,87.47
2019-01-13T08:38:53.190Z,87.52
2019-01-13T08:39:53.209Z,87.52
2019-01-13T08:40:53.224Z,87.71
2019-01-13T08:41:53.247Z,87.23
2019-01-13T08:42:53.275Z,87.52
2019-01-13T08:43:53.540Z,87.13
2019-01-13T08:44:53.555Z,87.13
2019-01-13T08:45:53.371Z,87.52
2019-01-13T08:46:53.638Z,87.23
2019-01-13T08:47:53.352Z,87.23
2019-01-13T08:48:53.632Z,87.13
2019-01-13T08:49:53.396Z,87.13
2019-01-13T08:50:53.406Z,87.23
2019-01-13T08:51:53.684Z,87.23
2019-01-13T08:52:53.449Z,87.32
2019-01-13T08:53:53.467Z,87.32
2019-01-13T08:54:53.489Z,87.42
2019-01-13T08:55:53.502Z,87.52
2019-01-13T08:56:53.785Z,87.61
2019-01-13T08:57:53.531Z,87.52
2019-01-13T08:58:53.560Z,87.52
2019-01-13T08:59:53.835Z,87.71
2019-01-13T09:00:53.897Z,87.71
2019-01-13T09:01:53.604Z,87.61
2019-01-13T09:02:53.626Z,87.9
2019-01-13T09:03:53.912Z,87.9
2019-01-13T09:04:53.920Z,87.9
2019-01-13T09:05:53.724Z,87.9
2019-01-13T09:06:53.699Z,87.8
2019-01-13T09:07:53.716Z,88.09
2019-01-13T09:08:53.731Z,87.99
2019-01-13T09:09:54.009Z,87.52
2019-01-13T09:10:54.024Z,88.09
2019-01-13T09:11:53.785Z,87.8
2019-01-13T09:12:59.144Z,87.61
2019-01-13T09:13:53.824Z,88.09
2019-01-13T09:14:53.846Z,87.61
2019-01-13T09:15:53.857Z,87.9
2019-01-13T09:16:53.874Z,88.09
2019-01-13T09:17:54.166Z,87.9
2019-01-13T09:18:53.911Z,87.99
2019-01-13T09:19:54.205Z,87.99
2019-01-13T09:20:53.949Z,87.71
2019-01-13T09:21:53.967Z,87.52
2019-01-13T09:22:53.992Z,87.42
2019-01-13T09:23:54.007Z,87.32
2019-01-13T09:24:54.276Z,87.42
2019-01-13T09:25:54.348Z,87.9
2019-01-13T09:26:54.057Z,87.99
2019-01-13T09:27:54.334Z,87.99
2019-01-13T09:28:54.360Z,87.99
2019-01-13T09:29:54.117Z,88.09
2019-01-13T09:30:54.387Z,88.09
2019-01-13T09:31:54.507Z,87.99
2019-01-13T09:32:54.170Z,87.71
2019-01-13T09:33:54.439Z,87.8
2019-01-13T09:34:54.200Z,88.09
2019-01-13T09:35:54.229Z,87.8
2019-01-13T09:36:54.238Z,87.8
2019-01-13T09:37:54.260Z,87.9
2019-01-13T09:38:54.271Z,87.8
2019-01-13T09:39:54.548Z,87.99
2019-01-13T09:40:54.579Z,88.18
2019-01-13T09:41:54.324Z,87.9
2019-01-13T09:42:54.625Z,88.18
2019-01-13T09:43:54.362Z,88.18
2019-01-13T09:44:54.643Z,88.18
2019-01-13T09:45:54.419Z,87.99
2019-01-13T09:46:54.686Z,88.09
2019-01-13T09:47:54.434Z,87.99
2019-01-13T09:48:54.454Z,87.99
2019-01-13T09:49:54.472Z,88.09
2019-01-13T09:50:54.777Z,87.8
2019-01-13T09:51:54.766Z,88.18
2019-01-13T09:52:54.782Z,88.18
2019-01-13T09:53:54.818Z,88.09
2019-01-13T09:54:54.563Z,87.52
2019-01-13T09:55:54.583Z,87.42
2019-01-13T09:56:54.856Z,87.52
2019-01-13T09:57:54.885Z,87.32
2019-01-13T09:58:54.636Z,87.61
2019-01-13T09:59:54.652Z,87.52
2019-01-13T10:00:54.678Z,87.52
2019-01-13T10:01:54.951Z,87.13
2019-01-13T10:02:54.717Z,87.42
2019-01-13T10:03:54.724Z,87.32
2019-01-13T10:04:54.749Z,87.32
2019-01-13T10:05:54.770Z,87.52
2019-01-13T10:06:55.042Z,87.52
2019-01-13T10:07:54.794Z,87.61
2019-01-13T10:08:55.076Z,86.94
2019-01-13T10:09:54.839Z,87.13
2019-01-13T10:10:54.863Z,87.52
2019-01-13T10:11:54.875Z,87.23
2019-01-13T10:12:54.889Z,87.23
2019-01-13T10:13:55.164Z,87.52
2019-01-13T10:14:55.184Z,87.52
2019-01-13T10:15:55.199Z,87.52
2019-01-13T10:16:54.963Z,87.42
2019-01-13T10:17:54.977Z,87.04
2019-01-13T10:18:54.995Z,87.32
2019-01-13T10:19:55.026Z,87.52
2019-01-13T10:20:56.065Z,87.04
2019-01-13T10:21:55.314Z,87.42
2019-01-13T10:22:55.338Z,86.94
2019-01-13T10:23:55.345Z,87.23
2019-01-13T10:24:55.361Z,87.23
2019-01-13T10:25:55.396Z,87.04
2019-01-13T10:26:55.141Z,87.23
2019-01-13T10:27:55.430Z,87.32
2019-01-13T10:28:55.183Z,87.27
2019-01-13T10:29:55.205Z,87.04
2019-01-13T10:30:55.507Z,87.13
2019-01-13T10:31:55.239Z,87.32
2019-01-13T10:32:57.467Z,87.13
2019-01-13T10:33:55.275Z,87.52
2019-01-13T10:34:55.286Z,87.32
2019-01-13T10:35:55.575Z,87.32
2019-01-13T10:36:55.580Z,87.52
2019-01-13T10:37:55.348Z,87.32
2019-01-13T10:38:55.359Z,87.08
2019-01-13T10:39:55.382Z,87.04
2019-01-13T10:40:55.655Z,86.99
2019-01-13T10:41:55.673Z,87.27
2019-01-13T10:42:55.433Z,86.76
2019-01-13T10:43:55.706Z,86.99
2019-01-13T10:44:55.728Z,87.08
2019-01-13T10:45:55.489Z,86.99
2019-01-13T10:46:55.768Z,86.9
2019-01-13T10:47:55.535Z,86.8
2019-01-13T10:48:55.550Z,87.18
2019-01-13T10:49:55.572Z,86.99
2019-01-13T10:50:55.578Z,86.8
2019-01-13T10:51:55.648Z,87.08
2019-01-13T10:52:55.615Z,86.99
2019-01-13T10:53:55.633Z,86.9
2019-01-13T10:54:55.920Z,86.7
2019-01-13T10:55:55.931Z,86.9
2019-01-13T10:56:56.001Z,86.99
2019-01-13T10:57:55.966Z,86.8
2019-01-13T10:58:55.736Z,86.9
2019-01-13T10:59:55.755Z,86.99
2019-01-13T11:00:55.764Z,86.8
2019-01-13T11:01:55.795Z,86.9
2019-01-13T11:03:01.949Z,87.08
2019-01-13T11:03:55.817Z,86.9
2019-01-13T11:04:56.102Z,86.9
2019-01-13T11:05:56.111Z,86.8
2019-01-13T11:06:56.144Z,86.9
2019-01-13T11:07:55.896Z,86.7
2019-01-13T11:08:56.170Z,87.08
2019-01-13T11:09:55.932Z,86.8
2019-01-13T11:10:55.945Z,86.99
2019-01-13T11:11:55.965Z,86.9
2019-01-13T11:12:56.246Z,86.51
2019-01-13T11:13:56.000Z,86.99
2019-01-13T11:14:56.027Z,87.08
2019-01-13T11:15:56.300Z,86.51
2019-01-13T11:16:56.063Z,86.7
2019-01-13T11:17:56.077Z,87.08
2019-01-13T11:18:57.424Z,86.99
2019-01-13T11:19:56.111Z,86.61
2019-01-13T11:20:56.386Z,86.8
2019-01-13T11:21:56.402Z,86.8
2019-01-13T11:22:56.422Z,86.61
2019-01-13T11:23:56.193Z,86.7
2019-01-13T11:24:56.213Z,86.61
2019-01-13T11:25:56.229Z,86.8
2019-01-13T11:26:56.245Z,86.9
2019-01-13T11:27:56.257Z,87.08
2019-01-13T11:28:56.277Z,86.99
2019-01-13T11:29:56.558Z,86.61
2019-01-13T11:30:56.572Z,86.99
2019-01-13T11:31:56.329Z,86.42
2019-01-13T11:32:56.350Z,86.99
2019-01-13T11:33:56.638Z,87.08
2019-01-13T11:34:56.658Z,87.27
2019-01-13T11:35:56.659Z,87.08
2019-01-13T11:36:56.709Z,87.18
2019-01-13T11:37:56.701Z,87.18
2019-01-13T11:38:56.719Z,87.08
2019-01-13T11:39:56.479Z,87.18
2019-01-13T11:40:56.499Z,87.18
2019-01-13T11:41:56.516Z,87.37
2019-01-13T11:42:56.791Z,87.37
2019-01-13T11:43:56.812Z,87.37
2019-01-13T11:44:56.841Z,87.27
2019-01-13T11:45:56.844Z,87.08
2019-01-13T11:46:56.605Z,87.56
2019-01-13T11:47:56.630Z,87.37
2019-01-13T11:48:56.643Z,87.56
2019-01-13T11:49:56.663Z,87.37
2019-01-13T11:50:56.936Z,87.37
2019-01-13T11:51:56.958Z,87.37
2019-01-13T11:52:57.027Z,87.46
2019-01-13T11:53:56.991Z,87.08
2019-01-13T11:54:56.755Z,87.37
2019-01-13T11:55:57.045Z,87.08
2019-01-13T11:56:57.061Z,87.08
2019-01-13T11:57:57.071Z,86.99
2019-01-13T11:58:56.842Z,87.27
2019-01-13T11:59:57.106Z,87.08
2019-01-13T12:00:56.872Z,87.56
2019-01-13T12:01:57.145Z,87.27
2019-01-13T12:02:57.170Z,87.37
2019-01-13T12:03:56.925Z,87.37
2019-01-13T12:04:57.200Z,87.37
2019-01-13T12:05:56.962Z,87.18
2019-01-13T12:06:57.248Z,87.08
2019-01-13T12:07:57.314Z,87.37
2019-01-13T12:08:57.268Z,87.37
2019-01-13T12:09:57.034Z,87.27
2019-01-13T12:10:57.047Z,87.18
2019-01-13T12:11:57.069Z,87.56
2019-01-13T12:12:57.092Z,87.37
2019-01-13T12:13:57.363Z,86.9
2019-01-13T12:14:57.127Z,86.99
2019-01-13T12:15:57.411Z,87.56
2019-01-13T12:16:57.161Z,87.18
2019-01-13T12:17:57.185Z,87.27
2019-01-13T12:18:57.194Z,87.27
2019-01-13T12:19:57.489Z,87.18
2019-01-13T12:20:57.239Z,87.27
2019-01-13T12:21:58.258Z,87.27
2019-01-13T12:22:57.531Z,87.56
2019-01-13T12:23:57.288Z,87.18
2019-01-13T12:24:57.312Z,87.08
2019-01-13T12:25:57.590Z,87.27
2019-01-13T12:26:57.348Z,87.18
2019-01-13T12:27:57.365Z,87.27
2019-01-13T12:28:57.642Z,87.27
2019-01-13T12:29:57.411Z,87.37
2019-01-13T12:30:57.418Z,87.27
2019-01-13T12:31:57.442Z,87.27
2019-01-13T12:32:57.456Z,87.18
2019-01-13T12:33:57.536Z,87.46
2019-01-13T12:34:57.752Z,87.56
2019-01-13T12:35:57.509Z,87.37
2019-01-13T12:36:57.793Z,87.37
2019-01-13T12:37:57.558Z,87.56
2019-01-13T12:38:57.571Z,87.56
2019-01-13T12:39:57.602Z,87.94
2019-01-13T12:40:57.861Z,88.13
2019-01-13T12:41:57.889Z,88.13
2019-01-13T12:42:57.648Z,88.23
2019-01-13T12:43:57.915Z,88.04
2019-01-13T12:44:57.935Z,87.85
2019-01-13T12:45:57.698Z,88.13
2019-01-13T12:46:57.973Z,87.46
2019-01-13T12:47:57.994Z,87.37
2019-01-13T12:48:57.753Z,87.94
2019-01-13T12:49:57.769Z,87.85
2019-01-13T12:50:58.046Z,87.94
2019-01-13T12:51:57.819Z,88.04
2019-01-13T12:52:57.827Z,88.04
2019-01-13T12:53:58.102Z,87.85
2019-01-13T12:54:57.871Z,87.94
2019-01-13T12:55:57.879Z,87.85
2019-01-13T12:56:58.155Z,87.85
2019-01-13T12:57:58.177Z,87.94
2019-01-13T12:58:57.938Z,88.04
2019-01-13T12:59:57.962Z,87.75